createdAt,value
2022-12-03T00:00:16.722Z,102125.28
2022-12-03T00:02:43.825Z,102142.16
2022-12-03T00:05:11.049Z,102140.16
2022-12-03T00:07:37.959Z,102135.94
2022-12-03T00:10:05.641Z,102144.63
2022-12-03T00:12:32.625Z,102140.16
2022-12-03T00:14:59.520Z,102140.41
2022-12-03T00:17:26.527Z,102140.69
2022-12-03T00:19:53.437Z,102138.13
2022-12-03T00:22:20.481Z,102138.69
2022-12-03T00:24:47.431Z,102132.78
2022-12-03T00:27:14.251Z,102141.50
2022-12-03T00:29:41.122Z,102142.03
2022-12-03T00:32:08.090Z,102139.78
2022-12-03T00:34:35.069Z,102139.47
2022-12-03T00:37:02.371Z,102134.44
2022-12-03T00:39:29.195Z,102130.50
2022-12-03T00:41:56.017Z,102135.81
2022-12-03T00:44:22.772Z,102125.41
2022-12-03T00:46:49.707Z,102134.41
2022-12-03T00:49:16.598Z,102123.16
2022-12-03T00:51:43.519Z,102132.13
2022-12-03T00:54:10.480Z,102130.16
2022-12-03T00:56:37.352Z,102128.19
2022-12-03T00:59:04.251Z,102121.72
2022-12-03T01:01:31.265Z,102124.53
2022-12-03T01:03:58.120Z,102119.50
2022-12-03T01:06:24.960Z,102127.09
2022-12-03T01:08:51.753Z,102118.41
2022-12-03T01:11:21.817Z,102121.22
2022-12-03T01:13:48.641Z,102119.00
2022-12-03T01:16:15.646Z,102113.94
2022-12-03T01:18:42.640Z,102124.38
2022-12-03T01:21:09.520Z,102123.53
2022-12-03T01:23:36.318Z,102123.28
2022-12-03T01:26:03.128Z,102126.09
2022-12-03T01:28:29.992Z,102129.47
2022-12-03T01:31:00.145Z,102122.47
2022-12-03T01:33:27.119Z,102126.38
2022-12-03T01:35:54.000Z,102124.44
2022-12-03T01:38:21.072Z,102127.25
2022-12-03T01:40:50.227Z,102134.81
2022-12-03T01:43:17.149Z,102132.88
2022-12-03T01:45:44.022Z,102127.25
2022-12-03T01:48:14.088Z,102135.16
2022-12-03T01:50:40.912Z,102134.56
2022-12-03T01:53:10.406Z,102126.38
2022-12-03T01:55:37.838Z,102134.00
2022-12-03T01:58:04.712Z,102121.91
2022-12-03T02:00:31.970Z,102125.25
2022-12-03T02:03:00.752Z,102127.22
2022-12-03T02:05:29.322Z,102115.44
2022-12-03T02:07:56.871Z,102127.25
2022-12-03T02:10:25.777Z,102125.00
2022-12-03T02:12:55.706Z,102121.66
2022-12-03T02:15:22.632Z,102121.06
2022-12-03T02:17:49.596Z,102111.25
2022-12-03T02:20:16.725Z,102123.88
2022-12-03T02:22:46.712Z,102122.50
2022-12-03T02:25:14.977Z,102119.97
2022-12-03T02:27:42.161Z,102105.38
2022-12-03T02:30:09.505Z,102099.44
2022-12-03T02:32:37.113Z,102101.72
2022-12-03T02:35:04.079Z,102101.16
2022-12-03T02:37:33.049Z,102109.03
2022-12-03T02:40:01.773Z,102110.16
2022-12-03T02:42:32.404Z,102105.94
2022-12-03T02:45:05.511Z,102102.84
2022-12-03T02:47:34.247Z,102100.31
2022-12-03T02:50:02.551Z,102097.78
2022-12-03T02:52:29.443Z,102087.69
2022-12-03T02:54:56.462Z,102100.03
2022-12-03T02:57:25.231Z,102100.31
2022-12-03T02:59:52.298Z,102087.66
2022-12-03T03:02:19.555Z,102090.78
2022-12-03T03:04:46.707Z,102086.56
2022-12-03T03:07:14.337Z,102087.66
2022-12-03T03:09:41.672Z,102081.25
2022-12-03T03:12:09.555Z,102085.16
2022-12-03T03:14:36.641Z,102091.63
2022-12-03T03:17:03.752Z,102089.66
2022-12-03T03:19:30.955Z,102079.53
2022-12-03T03:22:05.584Z,102076.16
2022-12-03T03:24:32.538Z,102086.84
2022-12-03T03:26:59.420Z,102081.50
2022-12-03T03:29:26.448Z,102078.16
2022-12-03T03:31:53.361Z,102077.56
2022-12-03T03:34:20.395Z,102074.19
2022-12-03T03:36:47.369Z,102075.34
2022-12-03T03:39:14.251Z,102066.34
2022-12-03T03:41:41.512Z,102065.78
2022-12-03T03:44:09.042Z,102072.50
2022-12-03T03:46:37.354Z,102068.00
2022-12-03T03:49:05.507Z,102064.91
2022-12-03T03:51:33.170Z,102065.19
2022-12-03T03:54:00.315Z,102062.09
2022-12-03T03:56:27.433Z,102061.25
2022-12-03T03:58:55.596Z,102058.72
2022-12-03T04:01:24.016Z,102064.63
2022-12-03T04:03:51.115Z,102070.78
2022-12-03T04:06:18.004Z,102055.91
2022-12-03T04:08:44.956Z,102067.69
2022-12-03T04:11:14.872Z,102055.34
2022-12-03T04:13:41.765Z,102055.63
2022-12-03T04:16:08.667Z,102063.50
2022-12-03T04:18:38.697Z,102057.31
2022-12-03T04:21:08.808Z,102055.59
2022-12-03T04:23:35.677Z,102060.66
2022-12-03T04:26:05.679Z,102058.41
2022-12-03T04:28:35.592Z,102057.59
2022-12-03T04:31:22.374Z,102048.59
2022-12-03T04:33:52.411Z,102054.78
2022-12-03T04:36:19.227Z,102048.56
2022-12-03T04:38:46.072Z,102046.03
2022-12-03T04:41:12.960Z,102049.69
2022-12-03T04:43:59.680Z,102046.03
2022-12-03T04:46:26.528Z,102040.72
2022-12-03T04:48:53.383Z,102042.97
2022-12-03T04:51:20.228Z,102042.41
2022-12-03T04:53:47.198Z,102037.91
2022-12-03T04:56:14.266Z,102041.28
2022-12-03T04:58:41.125Z,102033.97
2022-12-03T05:01:07.963Z,102032.28
2022-12-03T05:03:34.987Z,102038.16
2022-12-03T05:06:01.757Z,102032.28
2022-12-03T05:08:28.654Z,102035.66
2022-12-03T05:10:55.522Z,102029.47
2022-12-03T05:13:22.370Z,102026.94
2022-12-03T05:15:49.266Z,102023.56
2022-12-03T05:18:16.175Z,102033.94
2022-12-03T05:20:46.939Z,102023.00
2022-12-03T05:23:18.484Z,102019.34
2022-12-03T05:25:45.370Z,102019.91
2022-12-03T05:28:12.319Z,102014.56
2022-12-03T05:30:39.347Z,102020.47
2022-12-03T05:33:06.241Z,102013.19
2022-12-03T05:35:33.513Z,102014.03
2022-12-03T05:38:00.303Z,102015.41
2022-12-03T05:40:27.117Z,102027.75
2022-12-03T05:42:54.012Z,102006.44
2022-12-03T05:45:21.756Z,102005.84
2022-12-03T05:47:48.721Z,102008.97
2022-12-03T05:50:15.757Z,102006.41
2022-12-03T05:52:42.841Z,102004.47
2022-12-03T05:55:10.806Z,102000.81
2022-12-03T05:57:38.390Z,102001.09
2022-12-03T06:00:06.010Z,101994.06
2022-12-03T06:02:32.977Z,101988.47
2022-12-03T06:05:00.002Z,101984.25
2022-12-03T06:07:27.032Z,101993.78
2022-12-03T06:09:53.995Z,101994.88
2022-12-03T06:12:20.794Z,101994.03
2022-12-03T06:14:47.654Z,101980.00
2022-12-03T06:17:14.563Z,101985.63
2022-12-03T06:19:41.509Z,101978.63
2022-12-03T06:22:08.404Z,101983.38
2022-12-03T06:24:35.276Z,101970.47
2022-12-03T06:27:02.233Z,101973.53
2022-12-03T06:29:29.057Z,101973.84
2022-12-03T06:31:56.079Z,101977.47
2022-12-03T06:34:22.891Z,101984.22
2022-12-03T06:36:50.921Z,101977.47
2022-12-03T06:39:18.400Z,101974.38
2022-12-03T06:41:45.402Z,101971.56
2022-12-03T06:44:12.320Z,101967.06
2022-12-03T06:46:39.190Z,101968.22
2022-12-03T06:49:06.099Z,101966.78
2022-12-03T06:51:32.974Z,101968.47
2022-12-03T06:53:59.812Z,101962.63
2022-12-03T06:56:32.834Z,101962.97
2022-12-03T06:59:02.077Z,101971.66
2022-12-03T07:01:29.056Z,101963.56
2022-12-03T07:03:55.919Z,101959.06
2022-12-03T07:06:22.799Z,101954.06
2022-12-03T07:08:49.839Z,101955.16
2022-12-03T07:11:19.748Z,101949.56
2022-12-03T07:13:46.638Z,101951.81
2022-12-03T07:16:13.553Z,101952.09
2022-12-03T07:18:40.471Z,101960.50
2022-12-03T07:21:07.335Z,101961.09
2022-12-03T07:23:34.249Z,101945.38
2022-12-03T07:26:01.084Z,101941.72
2022-12-03T07:28:27.921Z,101951.25
2022-12-03T07:30:54.845Z,101954.34
2022-12-03T07:33:21.841Z,101946.78
2022-12-03T07:35:48.911Z,101945.94
2022-12-03T07:38:15.914Z,101938.63
2022-12-03T07:40:42.797Z,101939.75
2022-12-03T07:43:09.674Z,101939.75
2022-12-03T07:45:36.556Z,101940.88
2022-12-03T07:48:03.457Z,101937.22
2022-12-03T07:50:30.272Z,101939.19
2022-12-03T07:52:57.054Z,101941.13
2022-12-03T07:55:25.478Z,101941.13
2022-12-03T07:57:52.716Z,101934.66
2022-12-03T08:00:20.311Z,101933.53
2022-12-03T08:02:47.271Z,101937.44
2022-12-03T08:05:14.611Z,101932.94
2022-12-03T08:07:41.727Z,101929.28
2022-12-03T08:10:09.008Z,101925.59
2022-12-03T08:12:41.424Z,101929.53
2022-12-03T08:15:11.013Z,101921.91
2022-12-03T08:17:40.601Z,101918.25
2022-12-03T08:20:10.606Z,101916.81
2022-12-03T08:22:37.513Z,101912.88
2022-12-03T08:25:06.964Z,101913.13
2022-12-03T08:27:33.928Z,101908.88
2022-12-03T08:30:03.859Z,101897.94
2022-12-03T08:32:31.524Z,101906.66
2022-12-03T08:34:58.603Z,101906.06
2022-12-03T08:37:25.532Z,101902.66
2022-12-03T08:39:54.868Z,101898.44
2022-12-03T08:42:26.943Z,101903.47
2022-12-03T08:44:56.235Z,101897.56
2022-12-03T08:47:24.371Z,101898.94
2022-12-03T08:49:54.464Z,101893.88
2022-12-03T08:52:22.308Z,101888.00
2022-12-03T08:54:52.940Z,101888.81
2022-12-03T08:57:21.451Z,101886.28
2022-12-03T08:59:48.405Z,101887.13
2022-12-03T09:02:21.975Z,101890.75
2022-12-03T09:04:49.173Z,101881.19
2022-12-03T09:07:16.148Z,101876.13
2022-12-03T09:09:43.055Z,101877.81
2022-12-03T09:12:10.144Z,101878.63
2022-12-03T09:14:37.033Z,101883.97
2022-12-03T09:17:04.109Z,101884.81
2022-12-03T09:19:32.160Z,101887.63
2022-12-03T09:21:59.025Z,101883.13
2022-12-03T09:24:25.963Z,101881.44
2022-12-03T09:26:53.003Z,101878.09
2022-12-03T09:29:20.068Z,101882.16
2022-12-03T09:31:47.283Z,101883.91
2022-12-03T09:34:14.258Z,101872.91
2022-12-03T09:36:41.195Z,101874.31
2022-12-03T09:39:08.074Z,101871.81
2022-12-03T09:41:35.125Z,101883.56
2022-12-03T09:44:04.461Z,101868.16
2022-12-03T09:46:32.989Z,101869.28
2022-12-03T09:49:00.787Z,101876.00
2022-12-03T09:51:30.587Z,101866.75
2022-12-03T09:53:59.740Z,101868.97
2022-12-03T09:56:26.933Z,101866.47
2022-12-03T09:58:54.028Z,101863.66
2022-12-03T10:01:21.100Z,101860.59
2022-12-03T10:03:51.242Z,101859.84
2022-12-03T10:06:19.438Z,101852.88
2022-12-03T10:08:48.755Z,101857.66
2022-12-03T10:11:16.455Z,101844.47
2022-12-03T10:13:43.907Z,101845.28
2022-12-03T10:16:12.913Z,101846.69
2022-12-03T10:18:42.326Z,101840.19
2022-12-03T10:21:17.397Z,101838.50
2022-12-03T10:23:44.376Z,101830.91
2022-12-03T10:26:11.345Z,101834.56
2022-12-03T10:28:40.059Z,101828.66
2022-12-03T10:31:08.362Z,101828.91
2022-12-03T10:33:36.313Z,101824.97
2022-12-03T10:36:06.187Z,101820.19
2022-12-03T10:38:33.033Z,101827.50
2022-12-03T10:41:00.298Z,101819.09
2022-12-03T10:43:27.295Z,101801.91
2022-12-03T10:46:03.363Z,101803.06
2022-12-03T10:48:30.878Z,101806.41
2022-12-03T10:50:58.154Z,101802.47
2022-12-03T10:53:28.871Z,101799.06
2022-12-03T10:55:58.867Z,101800.75
2022-12-03T10:58:28.396Z,101802.13
2022-12-03T11:00:56.710Z,101793.16
2022-12-03T11:03:25.994Z,101797.31
2022-12-03T11:05:53.936Z,101783.84
2022-12-03T11:08:23.512Z,101788.06
2022-12-03T11:10:53.380Z,101773.72
2022-12-03T11:13:23.517Z,101768.34
2022-12-03T11:15:50.411Z,101770.28
2022-12-03T11:18:20.313Z,101765.75
2022-12-03T11:20:47.661Z,101749.13
2022-12-03T11:23:14.474Z,101749.69
2022-12-03T11:25:44.432Z,101750.53
2022-12-03T11:28:13.940Z,101753.28
2022-12-03T11:30:43.986Z,101751.00
2022-12-03T11:33:21.909Z,101739.72
2022-12-03T11:35:51.873Z,101735.75
2022-12-03T11:38:38.698Z,101734.63
2022-12-03T11:41:08.656Z,101732.63
2022-12-03T11:43:38.673Z,101732.56
2022-12-03T11:46:09.610Z,101718.81
2022-12-03T11:48:43.807Z,101712.59
2022-12-03T11:51:14.345Z,101709.50
2022-12-03T11:53:41.500Z,101708.03
2022-12-03T11:56:09.533Z,101698.47
2022-12-03T11:58:38.698Z,101690.59
2022-12-03T12:01:06.976Z,101690.00
2022-12-03T12:03:35.347Z,101686.03
2022-12-03T12:06:05.457Z,101688.25
2022-12-03T12:08:33.647Z,101696.41
2022-12-03T12:11:01.122Z,101684.00
2022-12-03T12:13:29.148Z,101683.69
2022-12-03T12:15:56.129Z,101681.44
2022-12-03T12:18:26.666Z,101679.16
2022-12-03T12:20:53.737Z,101670.72
2022-12-03T12:23:22.371Z,101674.38
2022-12-03T12:25:53.999Z,101667.59
2022-12-03T12:28:21.326Z,101665.09
2022-12-03T12:30:48.528Z,101662.88
2022-12-03T12:33:20.124Z,101661.81
2022-12-03T12:35:47.176Z,101661.56
2022-12-03T12:38:15.694Z,101658.50
2022-12-03T12:40:45.298Z,101654.31
2022-12-03T12:43:17.640Z,101658.56
2022-12-03T12:45:47.976Z,101663.38
2022-12-03T12:48:15.555Z,101647.00
2022-12-03T12:50:44.289Z,101649.81
2022-12-03T12:53:11.632Z,101642.69
2022-12-03T12:55:40.045Z,101640.16
2022-12-03T12:58:12.108Z,101636.72
2022-12-03T13:00:40.303Z,101637.78
2022-12-03T13:03:07.554Z,101630.75
2022-12-03T13:05:37.591Z,101639.41
2022-12-03T13:08:14.383Z,101635.16
2022-12-03T13:10:42.253Z,101637.66
2022-12-03T13:13:12.252Z,101646.66
2022-12-03T13:15:42.957Z,101640.75
2022-12-03T13:18:12.953Z,101634.81
2022-12-03T13:20:40.039Z,101632.25
2022-12-03T13:23:22.428Z,101639.22
2022-12-03T13:26:06.322Z,101628.81
2022-12-03T13:28:41.312Z,101626.53
2022-12-03T13:31:11.394Z,101614.75
2022-12-03T13:33:39.240Z,101619.22
2022-12-03T13:36:11.344Z,101612.47
2022-12-03T13:38:38.156Z,101612.19
2022-12-03T13:41:05.356Z,101613.59
2022-12-03T13:43:33.017Z,101604.03
2022-12-03T13:46:00.307Z,101604.88
2022-12-03T13:48:27.632Z,101606.00
2022-12-03T13:50:54.733Z,101600.38
2022-12-03T13:53:22.621Z,101592.78
2022-12-03T13:55:51.124Z,101601.22
2022-12-03T13:58:18.187Z,101592.22
2022-12-03T14:00:45.350Z,101591.38
2022-12-03T14:03:12.325Z,101589.72
2022-12-03T14:05:39.332Z,101593.13
2022-12-03T14:08:06.580Z,101586.66
2022-12-03T14:10:33.987Z,101589.81
2022-12-03T14:13:00.945Z,101586.16
2022-12-03T14:15:27.844Z,101579.13
2022-12-03T14:17:54.860Z,101582.28
2022-12-03T14:20:21.816Z,101584.81
2022-12-03T14:22:48.715Z,101579.50
2022-12-03T14:25:15.773Z,101571.72
2022-12-03T14:27:42.737Z,101579.09
2022-12-03T14:30:10.434Z,101572.38
2022-12-03T14:32:37.335Z,101579.16
2022-12-03T14:35:09.641Z,101566.53
2022-12-03T14:37:36.962Z,101571.91
2022-12-03T14:40:04.197Z,101580.41
2022-12-03T14:42:31.101Z,101572.59
2022-12-03T14:44:58.141Z,101575.09
2022-12-03T14:47:25.020Z,101575.41
2022-12-03T14:49:53.472Z,101576.81
2022-12-03T14:52:20.569Z,101567.53
2022-12-03T14:54:47.564Z,101577.16
2022-12-03T14:57:15.435Z,101576.88
2022-12-03T14:59:42.729Z,101579.16
2022-12-03T15:02:10.064Z,101581.16
2022-12-03T15:04:37.489Z,101587.06
2022-12-03T15:07:04.419Z,101582.03
2022-12-03T15:09:31.427Z,101573.06
2022-12-03T15:11:58.335Z,101568.88
2022-12-03T15:14:25.255Z,101579.06
2022-12-03T15:16:52.309Z,101576.84
2022-12-03T15:19:19.219Z,101571.28
2022-12-03T15:21:46.294Z,101567.31
2022-12-03T15:24:13.307Z,101573.00
2022-12-03T15:26:40.295Z,101568.81
2022-12-03T15:29:07.378Z,101561.28
2022-12-03T15:31:34.463Z,101574.22
2022-12-03T15:34:01.679Z,101565.56
2022-12-03T15:36:28.531Z,101561.66
2022-12-03T15:38:55.680Z,101560.59
2022-12-03T15:41:24.370Z,101566.78
2022-12-03T15:43:52.810Z,101564.00
2022-12-03T15:46:20.928Z,101561.81
2022-12-03T15:48:48.150Z,101564.38
2022-12-03T15:51:15.139Z,101555.41
2022-12-03T15:53:42.082Z,101563.88
2022-12-03T15:56:09.040Z,101566.16
2022-12-03T15:58:36.067Z,101568.13
2022-12-03T16:01:03.217Z,101567.88
2022-12-03T16:03:30.342Z,101566.19
2022-12-03T16:05:57.254Z,101565.94
2022-12-03T16:08:24.141Z,101562.34
2022-12-03T16:10:51.048Z,101569.91
2022-12-03T16:13:17.892Z,101569.06
2022-12-03T16:15:45.189Z,101564.06
2022-12-03T16:18:12.097Z,101573.59
2022-12-03T16:20:39.034Z,101567.47
2022-12-03T16:23:05.954Z,101569.44
2022-12-03T16:25:33.113Z,101563.53
2022-12-03T16:28:00.075Z,101562.72
2022-12-03T16:30:27.079Z,101563.28
2022-12-03T16:32:54.208Z,101568.06
2022-12-03T16:35:21.468Z,101564.72
2022-12-03T16:37:48.434Z,101568.66
2022-12-03T16:40:15.388Z,101570.38
2022-12-03T16:42:42.352Z,101561.13
2022-12-03T16:45:09.988Z,101567.56
2022-12-03T16:47:37.231Z,101573.78
2022-12-03T16:50:05.826Z,101567.91
2022-12-03T16:52:32.731Z,101564.53
2022-12-03T16:54:59.671Z,101568.22
2022-12-03T16:57:31.932Z,101569.56
2022-12-03T17:00:02.861Z,101562.28
2022-12-03T17:02:29.854Z,101553.63
2022-12-03T17:04:56.831Z,101562.03
2022-12-03T17:07:23.753Z,101555.06
2022-12-03T17:09:50.894Z,101559.81
2022-12-03T17:12:18.032Z,101549.47
2022-12-03T17:14:45.162Z,101552.28
2022-12-03T17:17:12.041Z,101554.28
2022-12-03T17:19:39.093Z,101552.31
2022-12-03T17:22:06.020Z,101554.56
2022-12-03T17:24:32.988Z,101553.44
2022-12-03T17:26:59.861Z,101548.13
2022-12-03T17:29:26.783Z,101553.19
2022-12-03T17:31:53.772Z,101550.66
2022-12-03T17:34:20.807Z,101552.94
2022-12-03T17:36:57.841Z,101547.59
2022-12-03T17:39:24.814Z,101542.28
2022-12-03T17:41:51.788Z,101547.34
2022-12-03T17:44:21.167Z,101535.56
2022-12-03T17:46:48.404Z,101543.13
2022-12-03T17:49:15.809Z,101539.81
2022-12-03T17:51:42.702Z,101540.09
2022-12-03T17:54:09.539Z,101541.19
2022-12-03T17:56:36.528Z,101539.84
2022-12-03T17:59:03.490Z,101544.59
2022-12-03T18:01:30.419Z,101539.84
2022-12-03T18:03:57.502Z,101537.34
2022-12-03T18:06:26.515Z,101538.50
2022-12-03T18:08:53.439Z,101534.28
2022-12-03T18:11:20.379Z,101538.19
2022-12-03T18:13:47.407Z,101539.34
2022-12-03T18:16:14.849Z,101542.72
2022-12-03T18:18:41.891Z,101543.03
2022-12-03T18:21:08.827Z,101548.06
2022-12-03T18:23:36.016Z,101542.47
2022-12-03T18:26:03.730Z,101543.88
2022-12-03T18:28:31.948Z,101546.69
2022-12-03T18:30:59.161Z,101547.56
2022-12-03T18:33:26.459Z,101539.16
2022-12-03T18:35:54.886Z,101534.38
2022-12-03T18:38:25.478Z,101543.34
2022-12-03T18:40:53.644Z,101537.75
2022-12-03T18:43:20.588Z,101543.66
2022-12-03T18:45:47.786Z,101540.56
2022-12-03T18:48:15.921Z,101533.31
2022-12-03T18:50:43.337Z,101532.75
2022-12-03T18:53:13.648Z,101536.38
2022-12-03T18:55:41.456Z,101526.03
2022-12-03T18:58:08.579Z,101531.38
2022-12-03T19:00:36.168Z,101513.41
2022-12-03T19:03:04.416Z,101515.09
2022-12-03T19:05:33.343Z,101514.25
2022-12-03T19:08:00.493Z,101503.59
2022-12-03T19:10:27.943Z,101499.97
2022-12-03T19:12:55.534Z,101513.72
2022-12-03T19:15:23.496Z,101511.19
2022-12-03T19:17:50.587Z,101508.69
2022-12-03T19:20:17.792Z,101502.25
2022-12-03T19:22:44.761Z,101496.66
2022-12-03T19:25:11.711Z,101499.16
2022-12-03T19:27:38.677Z,101497.50
2022-12-03T19:30:06.668Z,101494.69
2022-12-03T19:32:34.494Z,101498.63
2022-12-03T19:35:05.435Z,101503.09
2022-12-03T19:37:34.146Z,101500.84
2022-12-03T19:40:01.457Z,101504.47
2022-12-03T19:42:28.609Z,101499.13
2022-12-03T19:44:55.558Z,101501.06
2022-12-03T19:47:24.885Z,101504.72
2022-12-03T19:49:53.576Z,101502.47
2022-12-03T19:52:20.930Z,101503.81
2022-12-03T19:54:47.968Z,101502.69
2022-12-03T19:57:21.110Z,101502.63
2022-12-03T19:59:50.618Z,101498.13
2022-12-03T20:02:17.813Z,101511.28
2022-12-03T20:04:44.984Z,101499.47
2022-12-03T20:07:11.915Z,101504.22
2022-12-03T20:09:38.832Z,101505.34
2022-12-03T20:12:05.842Z,101504.22
2022-12-03T20:14:32.747Z,101510.06
2022-12-03T20:16:59.755Z,101503.88
2022-12-03T20:19:26.821Z,101510.59
2022-12-03T20:21:57.621Z,101515.34
2022-12-03T20:24:27.907Z,101504.38
2022-12-03T20:26:54.786Z,101518.38
2022-12-03T20:29:21.814Z,101508.22
2022-12-03T20:31:48.907Z,101510.16
2022-12-03T20:34:16.209Z,101504.78
2022-12-03T20:36:44.715Z,101502.78
2022-12-03T20:39:11.834Z,101504.75
2022-12-03T20:41:38.840Z,101506.69
2022-12-03T20:44:07.882Z,101512.25
2022-12-03T20:46:35.244Z,101514.47
2022-12-03T20:49:02.690Z,101504.03
2022-12-03T20:51:30.646Z,101503.44
2022-12-03T20:53:58.433Z,101505.34
2022-12-03T20:56:28.061Z,101504.47
2022-12-03T20:58:55.319Z,101494.31
2022-12-03T21:01:25.043Z,101497.06
2022-12-03T21:03:52.777Z,101499.81
2022-12-03T21:06:19.790Z,101498.38
2022-12-03T21:08:47.050Z,101493.84
2022-12-03T21:11:15.779Z,101491.81
2022-12-03T21:13:44.348Z,101493.75
2022-12-03T21:16:13.186Z,101496.78
2022-12-03T21:18:40.276Z,101494.22
2022-12-03T21:21:07.442Z,101493.34
2022-12-03T21:23:35.107Z,101485.13
2022-12-03T21:26:05.088Z,101489.91
2022-12-03T21:28:32.216Z,101488.44
2022-12-03T21:31:01.639Z,101495.47
2022-12-03T21:33:28.968Z,101490.91
2022-12-03T21:35:56.409Z,101487.47
2022-12-03T21:38:23.827Z,101489.72
2022-12-03T21:40:51.083Z,101482.66
2022-12-03T21:43:18.132Z,101483.19
2022-12-03T21:45:45.162Z,101480.59
2022-12-03T21:48:12.424Z,101484.78
2022-12-03T21:50:39.622Z,101473.25
2022-12-03T21:53:06.571Z,101472.63
2022-12-03T21:55:35.091Z,101461.94
2022-12-03T21:58:02.190Z,101462.16
2022-12-03T22:00:29.227Z,101466.31
2022-12-03T22:02:56.334Z,101463.75
2022-12-03T22:05:23.339Z,101456.69
2022-12-03T22:07:50.421Z,101460.88
2022-12-03T22:10:17.681Z,101454.09
2022-12-03T22:12:44.498Z,101460.78
2022-12-03T22:15:18.148Z,101464.13
2022-12-03T22:17:45.992Z,101462.69
2022-12-03T22:20:13.185Z,101461.56
2022-12-03T22:22:40.451Z,101463.44
2022-12-03T22:25:08.159Z,101465.13
2022-12-03T22:27:35.088Z,101460.06
2022-12-03T22:30:02.691Z,101462.53
2022-12-03T22:32:29.780Z,101452.97
2022-12-03T22:34:56.758Z,101458.28
2022-12-03T22:37:23.691Z,101456.84
2022-12-03T22:39:50.972Z,101462.16
2022-12-03T22:42:17.917Z,101457.91
2022-12-03T22:44:44.771Z,101453.69
2022-12-03T22:47:11.777Z,101443.78
2022-12-03T22:49:38.822Z,101445.16
2022-12-03T22:52:05.771Z,101445.69
2022-12-03T22:54:32.668Z,101452.69
2022-12-03T22:56:59.771Z,101452.56
2022-12-03T22:59:26.776Z,101451.66
2022-12-03T23:01:53.771Z,101448.31
2022-12-03T23:04:20.760Z,101442.91
2022-12-03T23:06:47.637Z,101437.28
2022-12-03T23:09:14.849Z,101440.31
2022-12-03T23:11:44.031Z,101442.84
2022-12-03T23:14:10.958Z,101436.34
2022-12-03T23:16:37.998Z,101429.91
2022-12-03T23:19:07.992Z,101429.59
2022-12-03T23:21:35.596Z,101430.44
2022-12-03T23:24:03.832Z,101432.91
2022-12-03T23:26:30.814Z,101432.91
2022-12-03T23:28:57.668Z,101429.28
2022-12-03T23:31:26.661Z,101428.75
2022-12-03T23:33:54.001Z,101435.22
2022-12-03T23:36:21.657Z,101432.41
2022-12-03T23:38:48.447Z,101429.59
2022-12-03T23:41:16.488Z,101430.72
2022-12-03T23:43:43.656Z,101428.22
2022-12-03T23:46:13.312Z,101427.06
2022-12-03T23:48:40.253Z,101423.97
2022-12-03T23:51:08.880Z,101429.28
2022-12-03T23:53:36.374Z,101419.19
2022-12-03T23:56:06.278Z,101425.00
2022-12-03T23:58:34.127Z,101417.41
